PAL201 RPLL-RPVM
Flight info
| Callsign | PAL201 |
|---|---|
| Flight time | 0h 55m |
| Altitude | 37000 |
| Route | IPATA2R IPATA W25 BATAY BATAY3P |
| Aircraft | A346/H-SDE2E3FGHIJ3J4J5M1RWXY/LB1D1 |
Departure
| Time | 2026-04-30 05:19 |
|---|---|
| Airport | Ninoy Aquino International Airport (RPLL) |
Arrival
| Time | 2026-04-30 06:14 |
|---|---|
| Airport | Mactan Cebu International Airport (RPVM) |
| Time | Latitude | Longitude | Altitude | Speed | Heading |
|---|---|---|---|---|---|
| 2026-04-30 04:55 | 14.50576 | 121.00712 | 50 ft | 0 kts | 239° |
| 2026-04-30 05:08 | 14.50577 | 121.00715 | 49 ft | 1 kts | 239° |
| 2026-04-30 05:08 | 14.50583 | 121.00724 | 48 ft | 2 kts | 231° |
| 2026-04-30 05:08 | 14.50595 | 121.00734 | 47 ft | 2 kts | 202° |
| 2026-04-30 05:08 | 14.50609 | 121.00737 | 46 ft | 2 kts | 181° |
| 2026-04-30 05:09 | 14.50624 | 121.00736 | 47 ft | 2 kts | 159° |
| 2026-04-30 05:09 | 14.50637 | 121.00728 | 49 ft | 2 kts | 137° |
| 2026-04-30 05:09 | 14.50646 | 121.00716 | 50 ft | 1 kts | 117° |
| 2026-04-30 05:09 | 14.50648 | 121.00711 | 51 ft | 0 kts | 114° |
| 2026-04-30 05:14 | 14.50642 | 121.00724 | 51 ft | 4 kts | 115° |
| 2026-04-30 05:14 | 14.50615 | 121.00758 | 50 ft | 8 kts | 143° |
| 2026-04-30 05:15 | 14.50551 | 121.00800 | 49 ft | 13 kts | 150° |
| 2026-04-30 05:15 | 14.50472 | 121.00825 | 48 ft | 11 kts | 193° |
| 2026-04-30 05:15 | 14.50396 | 121.00800 | 49 ft | 11 kts | 214° |
| 2026-04-30 05:15 | 14.50342 | 121.00729 | 48 ft | 14 kts | 238° |
| 2026-04-30 05:16 | 14.50287 | 121.00630 | 47 ft | 17 kts | 240° |
| 2026-04-30 05:16 | 14.50221 | 121.00513 | 46 ft | 19 kts | 239° |
| 2026-04-30 05:16 | 14.50147 | 121.00383 | 45 ft | 21 kts | 240° |
| 2026-04-30 05:16 | 14.50068 | 121.00236 | 43 ft | 24 kts | 242° |
| 2026-04-30 05:17 | 14.49982 | 121.00080 | 40 ft | 20 kts | 240° |
| 2026-04-30 05:17 | 14.49917 | 120.99976 | 39 ft | 12 kts | 214° |
| 2026-04-30 05:17 | 14.49841 | 120.99990 | 39 ft | 9 kts | 154° |
| 2026-04-30 05:17 | 14.49806 | 121.00023 | 39 ft | 3 kts | 89° |
| 2026-04-30 05:18 | 14.49808 | 121.00030 | 39 ft | 1 kts | 77° |
| 2026-04-30 05:18 | 14.49812 | 121.00047 | 40 ft | 3 kts | 75° |
| 2026-04-30 05:18 | 14.49825 | 121.00079 | 40 ft | 6 kts | 65° |
| 2026-04-30 05:18 | 14.49922 | 121.00259 | 42 ft | 65 kts | 60° |
| 2026-04-30 05:19 | 14.50269 | 121.00880 | 47 ft | 132 kts | 60° |
| 2026-04-30 05:19 | 14.50823 | 121.01876 | 141 ft | 178 kts | 60° |
| 2026-04-30 05:19 | 14.51426 | 121.02989 | 726 ft | 179 kts | 61° |
| 2026-04-30 05:19 | 14.52027 | 121.04112 | 1337 ft | 184 kts | 61° |
| 2026-04-30 05:20 | 14.52662 | 121.05278 | 1989 ft | 187 kts | 61° |
| 2026-04-30 05:20 | 14.53333 | 121.06473 | 2324 ft | 200 kts | 60° |
| 2026-04-30 05:20 | 14.54065 | 121.07775 | 2618 ft | 217 kts | 60° |
| 2026-04-30 05:20 | 14.54858 | 121.09194 | 2874 ft | 238 kts | 60° |
| 2026-04-30 05:21 | 14.55706 | 121.10717 | 3220 ft | 256 kts | 60° |
| 2026-04-30 05:21 | 14.56595 | 121.12344 | 3831 ft | 264 kts | 64° |
| 2026-04-30 05:21 | 14.57229 | 121.14114 | 4632 ft | 267 kts | 76° |
| 2026-04-30 05:21 | 14.57544 | 121.16023 | 5448 ft | 269 kts | 83° |
| 2026-04-30 05:22 | 14.57761 | 121.17937 | 6258 ft | 272 kts | 83° |
| 2026-04-30 05:22 | 14.57969 | 121.19868 | 7093 ft | 275 kts | 83° |
| 2026-04-30 05:22 | 14.58186 | 121.21835 | 7955 ft | 278 kts | 83° |
| 2026-04-30 05:22 | 14.58399 | 121.23824 | 8802 ft | 281 kts | 86° |
| 2026-04-30 05:23 | 14.58129 | 121.25808 | 9574 ft | 286 kts | 111° |
| 2026-04-30 05:23 | 14.57033 | 121.27532 | 10356 ft | 293 kts | 134° |
| 2026-04-30 05:23 | 14.55381 | 121.28875 | 10885 ft | 308 kts | 142° |
| 2026-04-30 05:23 | 14.53589 | 121.30221 | 11265 ft | 326 kts | 142° |
| 2026-04-30 05:24 | 14.51686 | 121.31654 | 11645 ft | 345 kts | 142° |
| 2026-04-30 05:24 | 14.49663 | 121.33190 | 11988 ft | 363 kts | 142° |
| 2026-04-30 05:24 | 14.47551 | 121.34799 | 12328 ft | 381 kts | 142° |
| 2026-04-30 05:24 | 14.45387 | 121.36453 | 12866 ft | 391 kts | 142° |
| 2026-04-30 05:25 | 14.43191 | 121.38132 | 13593 ft | 394 kts | 142° |
| 2026-04-30 05:25 | 14.40984 | 121.39821 | 14293 ft | 397 kts | 142° |
| 2026-04-30 05:25 | 14.38768 | 121.41518 | 14978 ft | 401 kts | 142° |
| 2026-04-30 05:25 | 14.36521 | 121.43239 | 15684 ft | 405 kts | 142° |
| 2026-04-30 05:26 | 14.34260 | 121.44971 | 16339 ft | 408 kts | 142° |
| 2026-04-30 05:26 | 14.31972 | 121.46725 | 16990 ft | 412 kts | 142° |
| 2026-04-30 05:26 | 14.29641 | 121.48511 | 17630 ft | 416 kts | 142° |
| 2026-04-30 05:26 | 14.27314 | 121.50291 | 18252 ft | 420 kts | 142° |
| 2026-04-30 05:27 | 14.24965 | 121.52082 | 18821 ft | 423 kts | 142° |
| 2026-04-30 05:27 | 14.22566 | 121.53909 | 19414 ft | 427 kts | 142° |
| 2026-04-30 05:27 | 14.20159 | 121.55742 | 19970 ft | 431 kts | 142° |
| 2026-04-30 05:27 | 14.17740 | 121.57584 | 20505 ft | 435 kts | 142° |
| 2026-04-30 05:28 | 14.15283 | 121.59456 | 21056 ft | 438 kts | 142° |
| 2026-04-30 05:28 | 14.12815 | 121.61336 | 21573 ft | 442 kts | 142° |
| 2026-04-30 05:28 | 14.10337 | 121.63222 | 22062 ft | 446 kts | 143° |
| 2026-04-30 05:28 | 14.07824 | 121.65135 | 22571 ft | 450 kts | 143° |
| 2026-04-30 05:29 | 14.05317 | 121.67046 | 23070 ft | 453 kts | 143° |
| 2026-04-30 05:29 | 14.02779 | 121.68980 | 23561 ft | 457 kts | 143° |
| 2026-04-30 05:29 | 14.00203 | 121.70946 | 24072 ft | 461 kts | 143° |
| 2026-04-30 05:29 | 13.97612 | 121.72924 | 24569 ft | 464 kts | 143° |
| 2026-04-30 05:30 | 13.95002 | 121.74915 | 25040 ft | 468 kts | 143° |
| 2026-04-30 05:30 | 13.92357 | 121.76932 | 25519 ft | 472 kts | 144° |
| 2026-04-30 05:30 | 13.89716 | 121.78944 | 26000 ft | 475 kts | 144° |
| 2026-04-30 05:30 | 13.87048 | 121.80977 | 26488 ft | 478 kts | 144° |
| 2026-04-30 05:31 | 13.84340 | 121.83030 | 26967 ft | 481 kts | 144° |
| 2026-04-30 05:31 | 13.81662 | 121.85046 | 27687 ft | 478 kts | 144° |
| 2026-04-30 05:31 | 13.78983 | 121.87061 | 28445 ft | 475 kts | 144° |
| 2026-04-30 05:31 | 13.76306 | 121.89078 | 28940 ft | 478 kts | 144° |
| 2026-04-30 05:32 | 13.73571 | 121.91138 | 29411 ft | 481 kts | 144° |
| 2026-04-30 05:32 | 13.70890 | 121.93157 | 30086 ft | 478 kts | 144° |
| 2026-04-30 05:32 | 13.68248 | 121.95149 | 30869 ft | 473 kts | 145° |
| 2026-04-30 05:32 | 13.65941 | 121.96887 | 31552 ft | 469 kts | 145° |
| 2026-04-30 05:33 | 13.63162 | 121.98983 | 32311 ft | 465 kts | 145° |
| 2026-04-30 05:33 | 13.60546 | 122.00953 | 33023 ft | 463 kts | 145° |
| 2026-04-30 05:33 | 13.57934 | 122.02920 | 33755 ft | 461 kts | 145° |
| 2026-04-30 05:33 | 13.55356 | 122.04859 | 34458 ft | 459 kts | 145° |
| 2026-04-30 05:34 | 13.52743 | 122.06825 | 35139 ft | 457 kts | 145° |
| 2026-04-30 05:34 | 13.50194 | 122.08742 | 35711 ft | 457 kts | 145° |
| 2026-04-30 05:34 | 13.47597 | 122.10696 | 36143 ft | 459 kts | 145° |
| 2026-04-30 05:34 | 13.45011 | 122.12640 | 36505 ft | 461 kts | 145° |
| 2026-04-30 05:35 | 13.42431 | 122.14580 | 36837 ft | 464 kts | 145° |
| 2026-04-30 05:35 | 13.39778 | 122.16575 | 36891 ft | 467 kts | 144° |
| 2026-04-30 05:35 | 13.34548 | 122.20506 | 36892 ft | 467 kts | 144° |
| 2026-04-30 05:36 | 13.29256 | 122.24481 | 36888 ft | 467 kts | 144° |
| 2026-04-30 05:36 | 13.24020 | 122.28411 | 36882 ft | 467 kts | 144° |
| 2026-04-30 05:37 | 13.18773 | 122.32347 | 36878 ft | 466 kts | 144° |
| 2026-04-30 05:37 | 13.13547 | 122.36266 | 36882 ft | 466 kts | 144° |
| 2026-04-30 05:38 | 13.08264 | 122.40228 | 36878 ft | 466 kts | 144° |
| 2026-04-30 05:38 | 13.03013 | 122.44162 | 36882 ft | 465 kts | 144° |
| 2026-04-30 05:39 | 12.97788 | 122.48073 | 36880 ft | 466 kts | 144° |
| 2026-04-30 05:39 | 12.92505 | 122.52025 | 36879 ft | 466 kts | 144° |
| 2026-04-30 05:40 | 12.87261 | 122.55946 | 36878 ft | 466 kts | 144° |
| 2026-04-30 05:40 | 12.81992 | 122.59884 | 36869 ft | 466 kts | 144° |
| 2026-04-30 05:41 | 12.76740 | 122.63809 | 36865 ft | 466 kts | 144° |
| 2026-04-30 05:41 | 12.71476 | 122.67741 | 36865 ft | 466 kts | 144° |
| 2026-04-30 05:42 | 12.66235 | 122.71653 | 36865 ft | 466 kts | 144° |
| 2026-04-30 05:42 | 12.61013 | 122.75550 | 36863 ft | 465 kts | 144° |
| 2026-04-30 05:43 | 12.55791 | 122.79443 | 36863 ft | 465 kts | 144° |
| 2026-04-30 05:43 | 12.50530 | 122.83363 | 36863 ft | 464 kts | 144° |
| 2026-04-30 05:44 | 12.45321 | 122.87246 | 36861 ft | 465 kts | 144° |
| 2026-04-30 05:44 | 12.40102 | 122.91135 | 36862 ft | 464 kts | 144° |
| 2026-04-30 05:45 | 12.34856 | 122.95042 | 36863 ft | 464 kts | 144° |
| 2026-04-30 05:45 | 12.29620 | 122.98932 | 36861 ft | 465 kts | 145° |
| 2026-04-30 05:46 | 12.24364 | 123.02828 | 36864 ft | 464 kts | 145° |
| 2026-04-30 05:46 | 12.19165 | 123.06686 | 36862 ft | 463 kts | 144° |
| 2026-04-30 05:47 | 12.13948 | 123.10555 | 36862 ft | 463 kts | 144° |
| 2026-04-30 05:47 | 12.08688 | 123.14459 | 36866 ft | 463 kts | 144° |
| 2026-04-30 05:48 | 12.06076 | 123.16396 | 36762 ft | 464 kts | 144° |
| 2026-04-30 05:48 | 12.03463 | 123.18334 | 36391 ft | 462 kts | 144° |
| 2026-04-30 05:48 | 12.00853 | 123.20269 | 35941 ft | 459 kts | 144° |
| 2026-04-30 05:48 | 11.98262 | 123.22191 | 35373 ft | 456 kts | 144° |
| 2026-04-30 05:49 | 11.95700 | 123.24090 | 34763 ft | 455 kts | 144° |
| 2026-04-30 05:49 | 11.93113 | 123.26008 | 34129 ft | 455 kts | 144° |
| 2026-04-30 05:49 | 11.90549 | 123.27907 | 33509 ft | 454 kts | 144° |
| 2026-04-30 05:49 | 11.87998 | 123.29797 | 32860 ft | 454 kts | 144° |
| 2026-04-30 05:50 | 11.85394 | 123.31724 | 32265 ft | 454 kts | 144° |
| 2026-04-30 05:50 | 11.82816 | 123.33630 | 31642 ft | 455 kts | 144° |
| 2026-04-30 05:50 | 11.80269 | 123.35512 | 30989 ft | 457 kts | 144° |
| 2026-04-30 05:50 | 11.77645 | 123.37451 | 30260 ft | 459 kts | 143° |
| 2026-04-30 05:51 | 11.75052 | 123.39368 | 29508 ft | 463 kts | 143° |
| 2026-04-30 05:51 | 11.72400 | 123.41330 | 28762 ft | 466 kts | 143° |
| 2026-04-30 05:51 | 11.69771 | 123.43275 | 28265 ft | 463 kts | 143° |
| 2026-04-30 05:51 | 11.67139 | 123.45222 | 27812 ft | 459 kts | 143° |
| 2026-04-30 05:52 | 11.64577 | 123.47119 | 27375 ft | 455 kts | 143° |
| 2026-04-30 05:52 | 11.62004 | 123.49021 | 26948 ft | 450 kts | 143° |
| 2026-04-30 05:52 | 11.59449 | 123.50909 | 26521 ft | 446 kts | 143° |
| 2026-04-30 05:52 | 11.56937 | 123.52764 | 26100 ft | 442 kts | 143° |
| 2026-04-30 05:53 | 11.54480 | 123.54578 | 25678 ft | 439 kts | 142° |
| 2026-04-30 05:53 | 11.52011 | 123.56401 | 25253 ft | 435 kts | 142° |
| 2026-04-30 05:53 | 11.49546 | 123.58222 | 24819 ft | 432 kts | 142° |
| 2026-04-30 05:53 | 11.47097 | 123.60029 | 24387 ft | 428 kts | 142° |
| 2026-04-30 05:54 | 11.44663 | 123.61825 | 23957 ft | 425 kts | 142° |
| 2026-04-30 05:54 | 11.42280 | 123.63583 | 23537 ft | 422 kts | 142° |
| 2026-04-30 05:54 | 11.39889 | 123.65347 | 23117 ft | 418 kts | 142° |
| 2026-04-30 05:54 | 11.37505 | 123.67106 | 22700 ft | 415 kts | 142° |
| 2026-04-30 05:55 | 11.35154 | 123.68839 | 22284 ft | 412 kts | 142° |
| 2026-04-30 05:55 | 11.32846 | 123.70540 | 21866 ft | 409 kts | 142° |
| 2026-04-30 05:55 | 11.30530 | 123.72247 | 21444 ft | 406 kts | 142° |
| 2026-04-30 05:55 | 11.28255 | 123.73923 | 21019 ft | 403 kts | 142° |
| 2026-04-30 05:56 | 11.26004 | 123.75584 | 20595 ft | 401 kts | 142° |
| 2026-04-30 05:56 | 11.23735 | 123.77257 | 20167 ft | 398 kts | 142° |
| 2026-04-30 05:56 | 11.21499 | 123.78906 | 19746 ft | 396 kts | 142° |
| 2026-04-30 05:56 | 11.19261 | 123.80553 | 19308 ft | 393 kts | 142° |
| 2026-04-30 05:57 | 11.17064 | 123.82167 | 18889 ft | 391 kts | 142° |
| 2026-04-30 05:57 | 11.14647 | 123.83463 | 18428 ft | 394 kts | 160° |
| 2026-04-30 05:57 | 11.11911 | 123.83839 | 17987 ft | 399 kts | 179° |
| 2026-04-30 05:57 | 11.09166 | 123.83322 | 17548 ft | 401 kts | 193° |
| 2026-04-30 05:58 | 11.06468 | 123.82537 | 17118 ft | 399 kts | 193° |
| 2026-04-30 05:58 | 11.03771 | 123.81758 | 16714 ft | 397 kts | 192° |
| 2026-04-30 05:58 | 11.01060 | 123.80986 | 16298 ft | 396 kts | 192° |
| 2026-04-30 05:58 | 10.98414 | 123.80241 | 15873 ft | 397 kts | 192° |
| 2026-04-30 05:59 | 10.95728 | 123.79487 | 15431 ft | 395 kts | 192° |
| 2026-04-30 05:59 | 10.93081 | 123.78748 | 15004 ft | 392 kts | 192° |
| 2026-04-30 05:59 | 10.90442 | 123.78011 | 14563 ft | 391 kts | 192° |
| 2026-04-30 05:59 | 10.87832 | 123.77281 | 14129 ft | 389 kts | 192° |
| 2026-04-30 06:00 | 10.85221 | 123.76553 | 13686 ft | 387 kts | 193° |
| 2026-04-30 06:00 | 10.82627 | 123.75829 | 13242 ft | 385 kts | 193° |
| 2026-04-30 06:00 | 10.80048 | 123.75109 | 12804 ft | 383 kts | 193° |
| 2026-04-30 06:00 | 10.77453 | 123.74384 | 12371 ft | 380 kts | 192° |
| 2026-04-30 06:01 | 10.74907 | 123.73673 | 11940 ft | 378 kts | 192° |
| 2026-04-30 06:01 | 10.72346 | 123.72959 | 11515 ft | 375 kts | 192° |
| 2026-04-30 06:01 | 10.69822 | 123.72256 | 11102 ft | 372 kts | 192° |
| 2026-04-30 06:01 | 10.67338 | 123.71564 | 10692 ft | 370 kts | 192° |
| 2026-04-30 06:02 | 10.64874 | 123.70878 | 10517 ft | 358 kts | 192° |
| 2026-04-30 06:02 | 10.62494 | 123.70213 | 10410 ft | 345 kts | 192° |
| 2026-04-30 06:02 | 10.60215 | 123.69577 | 10300 ft | 332 kts | 192° |
| 2026-04-30 06:02 | 10.58044 | 123.68971 | 10197 ft | 320 kts | 192° |
| 2026-04-30 06:03 | 10.55895 | 123.68372 | 10100 ft | 308 kts | 192° |
| 2026-04-30 06:03 | 10.53833 | 123.67796 | 10014 ft | 297 kts | 191° |
| 2026-04-30 06:03 | 10.51858 | 123.67245 | 9814 ft | 292 kts | 192° |
| 2026-04-30 06:03 | 10.49885 | 123.66698 | 9485 ft | 291 kts | 191° |
| 2026-04-30 06:04 | 10.47919 | 123.66154 | 9172 ft | 290 kts | 192° |
| 2026-04-30 06:04 | 10.45949 | 123.65608 | 8854 ft | 289 kts | 191° |
| 2026-04-30 06:04 | 10.44011 | 123.65070 | 8551 ft | 288 kts | 192° |
| 2026-04-30 06:05 | 10.40184 | 123.64005 | 7941 ft | 286 kts | 192° |
| 2026-04-30 06:05 | 10.38284 | 123.63477 | 7631 ft | 285 kts | 192° |
| 2026-04-30 06:05 | 10.36402 | 123.62965 | 7328 ft | 284 kts | 188° |
| 2026-04-30 06:05 | 10.34454 | 123.62991 | 6974 ft | 274 kts | 158° |
| 2026-04-30 06:06 | 10.32871 | 123.63950 | 6671 ft | 264 kts | 132° |
| 2026-04-30 06:06 | 10.31567 | 123.65323 | 6381 ft | 262 kts | 130° |
| 2026-04-30 06:06 | 10.30321 | 123.66641 | 6091 ft | 262 kts | 130° |
| 2026-04-30 06:06 | 10.29052 | 123.67963 | 5801 ft | 262 kts | 131° |
| 2026-04-30 06:07 | 10.27767 | 123.69286 | 5511 ft | 261 kts | 131° |
| 2026-04-30 06:07 | 10.26460 | 123.70621 | 5217 ft | 259 kts | 131° |
| 2026-04-30 06:07 | 10.25179 | 123.71925 | 4895 ft | 255 kts | 131° |
| 2026-04-30 06:07 | 10.23918 | 123.73207 | 4621 ft | 246 kts | 131° |
| 2026-04-30 06:08 | 10.22726 | 123.74416 | 4361 ft | 237 kts | 131° |
| 2026-04-30 06:08 | 10.21573 | 123.75588 | 4122 ft | 231 kts | 131° |
| 2026-04-30 06:08 | 10.20437 | 123.76742 | 3865 ft | 231 kts | 131° |
| 2026-04-30 06:08 | 10.19341 | 123.77856 | 3613 ft | 230 kts | 131° |
| 2026-04-30 06:09 | 10.18149 | 123.79068 | 3328 ft | 228 kts | 131° |
| 2026-04-30 06:09 | 10.17040 | 123.80200 | 3076 ft | 222 kts | 129° |
| 2026-04-30 06:09 | 10.16297 | 123.81499 | 2954 ft | 207 kts | 98° |
| 2026-04-30 06:09 | 10.16317 | 123.82927 | 2985 ft | 195 kts | 74° |
| 2026-04-30 06:10 | 10.16910 | 123.84087 | 2869 ft | 182 kts | 50° |
| 2026-04-30 06:10 | 10.17786 | 123.85001 | 2778 ft | 173 kts | 45° |
| 2026-04-30 06:10 | 10.18655 | 123.85854 | 2698 ft | 173 kts | 45° |
| 2026-04-30 06:10 | 10.19532 | 123.86716 | 2593 ft | 171 kts | 45° |
| 2026-04-30 06:11 | 10.20362 | 123.87537 | 2464 ft | 156 kts | 45° |
| 2026-04-30 06:11 | 10.21088 | 123.88260 | 2356 ft | 155 kts | 46° |
| 2026-04-30 06:11 | 10.21872 | 123.89047 | 2141 ft | 153 kts | 46° |
| 2026-04-30 06:11 | 10.22624 | 123.89803 | 1936 ft | 150 kts | 46° |
| 2026-04-30 06:12 | 10.23347 | 123.90529 | 1748 ft | 149 kts | 46° |
| 2026-04-30 06:12 | 10.24089 | 123.91273 | 1554 ft | 148 kts | 46° |
| 2026-04-30 06:12 | 10.24824 | 123.92014 | 1357 ft | 148 kts | 45° |
| 2026-04-30 06:12 | 10.25544 | 123.92731 | 1161 ft | 148 kts | 46° |
| 2026-04-30 06:13 | 10.26271 | 123.93465 | 963 ft | 147 kts | 45° |
| 2026-04-30 06:13 | 10.27004 | 123.94200 | 766 ft | 147 kts | 46° |
| 2026-04-30 06:13 | 10.27728 | 123.94922 | 572 ft | 146 kts | 46° |
| 2026-04-30 06:13 | 10.28463 | 123.95664 | 375 ft | 146 kts | 43° |
| 2026-04-30 06:14 | 10.29187 | 123.96388 | 196 ft | 146 kts | 44° |
| 2026-04-30 06:14 | 10.29922 | 123.97104 | 35 ft | 139 kts | 45° |
| 2026-04-30 06:14 | 10.30487 | 123.97673 | 37 ft | 75 kts | 45° |
| 2026-04-30 06:14 | 10.30758 | 123.97945 | 41 ft | 49 kts | 45° |
| 2026-04-30 06:15 | 10.30996 | 123.98187 | 42 ft | 47 kts | 44° |
| 2026-04-30 06:15 | 10.31217 | 123.98326 | 41 ft | 20 kts | 18° |
| 2026-04-30 06:15 | 10.31331 | 123.98349 | 43 ft | 16 kts | 357° |
| 2026-04-30 06:15 | 10.31426 | 123.98289 | 45 ft | 16 kts | 317° |
| 2026-04-30 06:16 | 10.31507 | 123.98206 | 48 ft | 16 kts | 314° |
| 2026-04-30 06:16 | 10.31579 | 123.98127 | 50 ft | 8 kts | 303° |
| 2026-04-30 06:16 | 10.31572 | 123.98094 | 51 ft | 5 kts | 214° |
| 2026-04-30 06:16 | 10.31528 | 123.98064 | 51 ft | 9 kts | 216° |
| 2026-04-30 06:17 | 10.31473 | 123.98014 | 52 ft | 12 kts | 225° |
| 2026-04-30 06:17 | 10.31404 | 123.97944 | 51 ft | 16 kts | 225° |
| 2026-04-30 06:17 | 10.31323 | 123.97886 | 51 ft | 9 kts | 216° |
| 2026-04-30 06:17 | 10.31308 | 123.97841 | 52 ft | 5 kts | 295° |
| 2026-04-30 06:18 | 10.31341 | 123.97806 | 52 ft | 6 kts | 316° |
| 2026-04-30 06:18 | 10.31355 | 123.97792 | 52 ft | 0 kts | 315° |